Bessie Ellen — ZITL7 — position and weather

sailwx.info

Track history (hours):
 
Tides and Currents Weather Stations Pressure Air Temp Water Temp Dewpoint Dewpoint Depression Visibility Wind Speed Wind Dir Waves Ship Positions

Bessie Ellen

Ship's website: http://bessie-ellen.com/blog/

Last reported at 2019-Jul-25 13:19 UTC. Time now 2019-Aug-22 09:09 UTC.
Position N 57°14' W 005°39'.
Warning: this ship's position is 27 days out of date.

Length 28 m.

Type: Sailing vessel. MMSI: 235005952.

Date/timePositionNaut miles runAvg speedWind from/ knotsBaromVisibWave heightAir tempDewpointWater temp
2019-Jul-25 13:19N 57°14' W 005°39'2 5.8
2019-Jul-25 12:56N 57°16' W 005°39'2 4.0
2019-Jul-25 12:30N 57°16' W 005°43'2 4.3
2019-Jul-25 12:00N 57°17' W 005°46'2 4.5
2019-Jul-25 11:30N 57°18' W 005°50'1 1.1
2019-Jul-25 10:58N 57°18' W 005°51'2 3.7
2019-Jul-25 10:30N 57°18' W 005°54'  
2019-Jul-22 12:22N 57°24' W 005°60'3 1.5
2019-Jul-22 10:11N 57°22' W 005°56'1 6.9
2019-Jul-22 09:59N 57°21' W 005°54'3 7.0
2019-Jul-22 09:30N 57°19' W 005°49'3 5.7
2019-Jul-22 09:00N 57°17' W 005°45'2 4.6
2019-Jul-22 08:30N 57°16' W 005°41'  
Track history (hours):
 
Tides and Currents Weather Stations Pressure Air Temp Water Temp Dewpoint Dewpoint Depression Visibility Wind Speed Wind Dir Waves Ship Positions

Bessie Ellen

Ship's website: http://bessie-ellen.com/blog/

Last reported at 2019-Jul-25 13:19 UTC. Time now 2019-Aug-22 09:09 UTC.
Position N 57°14' W 005°39'.
Warning: this ship's position is 27 days out of date.

Length 28 m.

Type: Sailing vessel. MMSI: 235005952.

Date/timePositionNaut miles runAvg speedWind from/ knotsBaromVisibWave heightAir tempDewpointWater temp
2019-Jul-25 13:19N 57°14' W 005°39'2 5.8
2019-Jul-25 12:56N 57°16' W 005°39'2 4.0
2019-Jul-25 12:30N 57°16' W 005°43'2 4.3
2019-Jul-25 12:00N 57°17' W 005°46'2 4.5
2019-Jul-25 11:30N 57°18' W 005°50'1 1.1
2019-Jul-25 10:58N 57°18' W 005°51'2 3.7
2019-Jul-25 10:30N 57°18' W 005°54'  
2019-Jul-22 12:22N 57°24' W 005°60'3 1.5
2019-Jul-22 10:11N 57°22' W 005°56'1 6.9
2019-Jul-22 09:59N 57°21' W 005°54'3 7.0
2019-Jul-22 09:30N 57°19' W 005°49'3 5.7
2019-Jul-22 09:00N 57°17' W 005°45'2 4.6
2019-Jul-22 08:30N 57°16' W 005°41'  

Dump ship's entire track history